Terminal Aerodrome Forecast
Issued by NWS

Home | Current Version | Previous Version | Text Only | Print | Product List | Glossary On
Versions: 1 2 3 4 5 6 7 8 9 10 11 12 13 14 15 16 17 18 19 20 21 22
954
FTUS43 KDTX 121120
TAFMBS
TAF
KMBS 121120Z 1212/1312 32018G30KT P6SM SCT035 BKN045
      TEMPO 1212/1214 5SM -SHSN BKN028
     FM130100 30012KT P6SM SCT035
     FM131000 26007KT P6SM BKN035=

USA.gov is the U.S. government's official web portal to all federal, state and local government web resources and services.